Observation data for Tatum on 06/15/2019      Previous  Date  Next       Current Mesonet Observations  Soil Data  Daily Summary Page  Observations in Plain Language
KTAT 150500Z 22010KT 21/01 A2988 RMK A01 T02120013  RH  027%=      5-min Rain = 0
KTAT 150505Z 21010KT 21/01 A2988 RMK A01 T02110013  RH  027%=      5-min Rain = 0
KTAT 150510Z 18012KT 20/02 A2989 RMK A01 T02040016  RH  029%=      5-min Rain = 0
KTAT 150515Z 18014KT 20/03 A2989 RMK A01 T02030028  RH  032%=      5-min Rain = 0
KTAT 150520Z 18013G19KT 21/04 A299 RMK A01 T02080040  RH  034%=      5-min Rain = 0
KTAT 150525Z 18012KT 21/05 A299 RMK A01 T02070048  RH  036%=      5-min Rain = 0
KTAT 150530Z 18011KT 21/06 A299 RMK A01 T02060058  RH  039%=      5-min Rain = 0
KTAT 150535Z 18011KT 21/07 A299 RMK A01 T02060069  RH  042%=      5-min Rain = 0
KTAT 150540Z 18011KT 21/08 A299 RMK A01 T02090079  RH  044%=      5-min Rain = 0
KTAT 150545Z 18013KT 21/09 A299 RMK A01 T02130087  RH  046%=      5-min Rain = 0
KTAT 150550Z 18014KT 22/09 A299 RMK A01 T02190093  RH  046%=      5-min Rain = 0
KTAT 150555Z 18013KT 22/10 A299 RMK A01 T02220096  RH  046%=      5-min Rain = 0
KTAT 150600Z 17014G19KT 22/10 A299 RMK A01 T02220098  RH  047%=      5-min Rain = 0
KTAT 150605Z 18015KT 22/10 A299 RMK A01 T02240101  RH  047%=      5-min Rain = 0
KTAT 150610Z 18015KT 22/10 A299 RMK A01 T02240103  RH  048%=      5-min Rain = 0
KTAT 150615Z 18015KT 22/11 A299 RMK A01 T02240105  RH  048%=      5-min Rain = 0
KTAT 150620Z 18015G20KT 22/11 A299 RMK A01 T02220106  RH  049%=      5-min Rain = 0
KTAT 150625Z 18017KT 22/11 A299 RMK A01 T02230108  RH  050%=      5-min Rain = 0
KTAT 150630Z 18017G23KT 22/11 A299 RMK A01 T02230110  RH  050%=      5-min Rain = 0
KTAT 150635Z 18017G22KT 22/11 A299 RMK A01 T02230112  RH  051%=      5-min Rain = 0
KTAT 150640Z 18016G21KT 22/11 A299 RMK A01 T02210113  RH  052%=      5-min Rain = 0
KTAT 150645Z 18016G22KT 22/11 A299 RMK A01 T02200114  RH  053%=      5-min Rain = 0
KTAT 150650Z 18015G20KT 22/11 A299 RMK A01 T02190114  RH  053%=      5-min Rain = 0
KTAT 150655Z 19014KT 22/11 A299 RMK A01 T02190114  RH  053%=      5-min Rain = 0
KTAT 150700Z 19014KT 22/11 A299 RMK A01 T02180113  RH  053%=      5-min Rain = 0
KTAT 150705Z 19013G18KT 22/11 A299 RMK A01 T02160113  RH  054%=      5-min Rain = 0
KTAT 150710Z 19013KT 21/11 A299 RMK A01 T02140112  RH  054%=      5-min Rain = 0
KTAT 150715Z 19013KT 21/11 A299 RMK A01 T02140111  RH  054%=      5-min Rain = 0
KTAT 150720Z 19013G19KT 21/11 A299 RMK A01 T02140111  RH  054%=      5-min Rain = 0
KTAT 150725Z 19013KT 21/11 A299 RMK A01 T02130111  RH  054%=      5-min Rain = 0
KTAT 150730Z 19013KT 21/11 A299 RMK A01 T02120111  RH  054%=      5-min Rain = 0
KTAT 150735Z 19013KT 21/11 A299 RMK A01 T02110111  RH  055%=      5-min Rain = 0
KTAT 150740Z 19013KT 21/11 A299 RMK A01 T02100111  RH  055%=      5-min Rain = 0
KTAT 150745Z 20013KT 21/11 A299 RMK A01 T02100111  RH  055%=      5-min Rain = 0
KTAT 150750Z 20014KT 21/11 A299 RMK A01 T02100110  RH  055%=      5-min Rain = 0
KTAT 150755Z 19014KT 21/11 A2989 RMK A01 T02100108  RH  054%=      5-min Rain = 0
KTAT 150800Z 19014G19KT 21/11 A2989 RMK A01 T02110107  RH  053%=      5-min Rain = 0
KTAT 150805Z 19015KT 21/11 A2989 RMK A01 T02120105  RH  052%=      5-min Rain = 0
KTAT 150810Z 20014KT 21/10 A2989 RMK A01 T02110104  RH  052%=      5-min Rain = 0
KTAT 150815Z 19014KT 21/10 A2989 RMK A01 T02110102  RH  051%=      5-min Rain = 0
KTAT 150820Z 20014KT 21/10 A2989 RMK A01 T02120100  RH  051%=      5-min Rain = 0
KTAT 150825Z 20014KT 21/10 A2989 RMK A01 T02120099  RH  050%=      5-min Rain = 0
KTAT 150830Z 21013KT 21/10 A2989 RMK A01 T02110098  RH  050%=      5-min Rain = 0
KTAT 150835Z 20013KT 21/10 A2989 RMK A01 T02090098  RH  051%=      5-min Rain = 0
KTAT 150840Z 20013KT 21/10 A2989 RMK A01 T02070098  RH  051%=      5-min Rain = 0
KTAT 150845Z 20013KT 21/10 A2989 RMK A01 T02050098  RH  052%=      5-min Rain = 0
KTAT 150850Z 20013KT 20/10 A2988 RMK A01 T02030098  RH  052%=      5-min Rain = 0
KTAT 150855Z 20013KT 20/10 A2988 RMK A01 T02020098  RH  053%=      5-min Rain = 0
KTAT 150900Z 20013KT 20/10 A2989 RMK A01 T02020098  RH  053%=      5-min Rain = 0
KTAT 150905Z 20013KT 20/10 A2989 RMK A01 T02020098  RH  053%=      5-min Rain = 0
KTAT 150910Z 20013KT 20/10 A2989 RMK A01 T02010099  RH  053%=      5-min Rain = 0
KTAT 150915Z 20012KT 20/10 A2989 RMK A01 T02010099  RH  054%=      5-min Rain = 0
KTAT 150920Z 21012KT 20/10 A2989 RMK A01 T01990100  RH  054%=      5-min Rain = 0
KTAT 150925Z 21011KT 20/10 A2989 RMK A01 T01980100  RH  055%=      5-min Rain = 0
KTAT 150930Z 20011KT 20/10 A2989 RMK A01 T01950101  RH  056%=      5-min Rain = 0
KTAT 150935Z 20010KT 19/10 A2989 RMK A01 T01940101  RH  057%=      5-min Rain = 0
KTAT 150940Z 21011KT 19/10 A2989 RMK A01 T01930102  RH  057%=      5-min Rain = 0
KTAT 150945Z 20011KT 19/10 A2989 RMK A01 T01900102  RH  058%=      5-min Rain = 0
KTAT 150950Z 21010G15KT 19/10 A299 RMK A01 T01910102  RH  058%=      5-min Rain = 0
KTAT 150955Z 22008KT 19/10 A299 RMK A01 T01860102  RH  060%=      5-min Rain = 0
KTAT 151000Z 22009KT 18/10 A299 RMK A01 T01800102  RH  062%=      5-min Rain = 0
KTAT 151005Z 22008KT 18/10 A299 RMK A01 T01780102  RH  063%=      5-min Rain = 0
KTAT 151010Z 23008KT 18/10 A299 RMK A01 T01750102  RH  064%=      5-min Rain = 0
KTAT 151015Z 23009KT 17/10 A299 RMK A01 T01730102  RH  065%=      5-min Rain = 0
KTAT 151020Z 23009KT 17/10 A299 RMK A01 T01740103  RH  065%=      5-min Rain = 0
KTAT 151025Z 23010KT 17/10 A299 RMK A01 T01720102  RH  066%=      5-min Rain = 0
KTAT 151030Z 23010KT 17/10 A299 RMK A01 T01690102  RH  067%=      5-min Rain = 0
KTAT 151035Z 23009KT 17/10 A2989 RMK A01 T01680103  RH  067%=      5-min Rain = 0
KTAT 151040Z 23009KT 17/10 A2989 RMK A01 T01670103  RH  068%=      5-min Rain = 0
KTAT 151045Z 23009KT 17/10 A2989 RMK A01 T01650103  RH  069%=      5-min Rain = 0
KTAT 151050Z 23009KT 16/10 A2989 RMK A01 T01630103  RH  070%=      5-min Rain = 0
KTAT 151055Z 23009KT 16/10 A2989 RMK A01 T01610102  RH  070%=      5-min Rain = 0
KTAT 151100Z 23010KT 16/10 A299 RMK A01 T01590102  RH  071%=      5-min Rain = 0
KTAT 151105Z 23009KT 16/10 A299 RMK A01 T01580102  RH  071%=      5-min Rain = 0
KTAT 151110Z 23009KT 16/10 A299 RMK A01 T01570102  RH  072%=      5-min Rain = 0
KTAT 151115Z 23009KT 16/10 A299 RMK A01 T01560102  RH  073%=      5-min Rain = 0
KTAT 151120Z 23009KT 16/10 A299 RMK A01 T01560103  RH  073%=      5-min Rain = 0
KTAT 151125Z 24009KT 16/10 A299 RMK A01 T01570103  RH  073%=      5-min Rain = 0
KTAT 151130Z 24009KT 16/10 A299 RMK A01 T01570104  RH  073%=      5-min Rain = 0
KTAT 151135Z 24010KT 16/10 A299 RMK A01 T01580104  RH  073%=      5-min Rain = 0
KTAT 151140Z 24010KT 16/11 A299 RMK A01 T01600105  RH  072%=      5-min Rain = 0
KTAT 151145Z 24011KT 16/11 A299 RMK A01 T01610105  RH  072%=      5-min Rain = 0
KTAT 151150Z 24011KT 16/11 A299 RMK A01 T01620105  RH  071%=      5-min Rain = 0
KTAT 151155Z 24011KT 16/11 A299 RMK A01 T01630105  RH  071%=      5-min Rain = 0
KTAT 151200Z 24010KT 16/11 A299 RMK A01 T01620105  RH  071%=      5-min Rain = 0
KTAT 151205Z 24009KT 16/11 A299 RMK A01 T01620105  RH  071%=      5-min Rain = 0
KTAT 151210Z 25009KT 16/11 A299 RMK A01 T01620106  RH  072%=      5-min Rain = 0
KTAT 151215Z 25008KT 16/11 A299 RMK A01 T01640107  RH  071%=      5-min Rain = 0
KTAT 151220Z 25008KT 17/11 A299 RMK A01 T01660107  RH  071%=      5-min Rain = 0
KTAT 151225Z 25008KT 17/11 A299 RMK A01 T01680108  RH  070%=      5-min Rain = 0
KTAT 151230Z 25008KT 17/11 A299 RMK A01 T01710108  RH  069%=      5-min Rain = 0
KTAT 151235Z 25007KT 17/11 A299 RMK A01 T01730108  RH  068%=      5-min Rain = 0
KTAT 151240Z 25007KT 18/11 A299 RMK A01 T01760108  RH  066%=      5-min Rain = 0
KTAT 151245Z 24008KT 18/11 A2991 RMK A01 T01780107  RH  065%=      5-min Rain = 0
KTAT 151250Z 24009KT 18/10 A2991 RMK A01 T01820104  RH  062%=      5-min Rain = 0
KTAT 151255Z 25009KT 19/10 A2991 RMK A01 T01900097  RH  056%=      5-min Rain = 0
KTAT 151300Z 25008KT 20/09 A2991 RMK A01 T02000090  RH  051%=      5-min Rain = 0
KTAT 151305Z 26009KT 21/08 A299 RMK A01 T02070084  RH  046%=      5-min Rain = 0
KTAT 151310Z 26008KT 21/08 A299 RMK A01 T02140080  RH  043%=      5-min Rain = 0
KTAT 151315Z 27008KT 22/08 A299 RMK A01 T02200077  RH  041%=      5-min Rain = 0
KTAT 151320Z 28007KT 23/07 A2991 RMK A01 T02270071  RH  038%=      5-min Rain = 0
KTAT 151325Z 28007KT 24/07 A2991 RMK A01 T02350070  RH  036%=      5-min Rain = 0
KTAT 151330Z 28007KT 24/07 A2991 RMK A01 T02430066  RH  033%=      5-min Rain = 0
KTAT 151335Z 28008KT 25/06 A2991 RMK A01 T02530058  RH  029%=      5-min Rain = 0
KTAT 151340Z 28009KT 26/05 A2991 RMK A01 T02620049  RH  026%=      5-min Rain = 0
KTAT 151345Z 28011KT 27/03 A2991 RMK A01 T02700031  RH  022%=      5-min Rain = 0
KTAT 151350Z 28013KT 27/02 A2991 RMK A01 T02740017  RH  019%=      5-min Rain = 0
KTAT 151355Z 28013KT 27/01 A2991 RMK A01 T02740009  RH  018%=      5-min Rain = 0
KTAT 151400Z 27012KT 27/01 A2992 RMK A01 T02730008  RH  018%=      5-min Rain = 0
KTAT 151405Z 27012KT 27/02 A2992 RMK A01 T02740020  RH  020%=      5-min Rain = 0
KTAT 151410Z 28012KT 28/02 A2992 RMK A01 T02750020  RH  020%=      5-min Rain = 0
KTAT 151415Z 28012KT 28/02 A2992 RMK A01 T02760024  RH  020%=      5-min Rain = 0
KTAT 151420Z 28014KT 28/02 A2993 RMK A01 T02800019  RH  019%=      5-min Rain = 0
KTAT 151425Z 29015KT 29/01 A2993 RMK A01 T02850006  RH  017%=      5-min Rain = 0
KTAT 151430Z 29015KT 28/M01 A2993 RMK A01 T02811010  RH  015%=      5-min Rain = 0
KTAT 151435Z 29012KT 27/M01 A2993 RMK A01 T02721010  RH  016%=      5-min Rain = 0
KTAT 151440Z 29014KT 28/M00 A2993 RMK A01 T02771002  RH  016%=      5-min Rain = 0
KTAT 151445Z 30015KT 28/M00 A2992 RMK A01 T02841004  RH  015%=      5-min Rain = 0
KTAT 151450Z 31016KT 28/M01 A2992 RMK A01 T02841014  RH  014%=      5-min Rain = 0
KTAT 151455Z 32013KT 29/M01 A2992 RMK A01 T02891011  RH  014%=      5-min Rain = 0
KTAT 151500Z 31015KT 29/M01 A2992 RMK A01 T02921010  RH  014%=      5-min Rain = 0
KTAT 151505Z 30014KT 29/M01 A2992 RMK A01 T02931013  RH  014%=      5-min Rain = 0
KTAT 151510Z 30014KT 30/M01 A2992 RMK A01 T02961012  RH  014%=      5-min Rain = 0
KTAT 151515Z 29014KT 30/M01 A2993 RMK A01 T02991009  RH  014%=      5-min Rain = 0
KTAT 151520Z 29015G20KT 30/M01 A2993 RMK A01 T02991005  RH  014%=      5-min Rain = 0
KTAT 151525Z 30014KT 30/M01 A2993 RMK A01 T02951012  RH  014%=      5-min Rain = 0
KTAT 151530Z 31012KT 28/M01 A2993 RMK A01 T02821014  RH  015%=      5-min Rain = 0
KTAT 151535Z 31011KT 29/M01 A2992 RMK A01 T02871006  RH  015%=      5-min Rain = 0
KTAT 151540Z 31012KT 30/M01 A2992 RMK A01 T02951007  RH  014%=      5-min Rain = 0
KTAT 151545Z 31013KT 30/M01 A2992 RMK A01 T02991010  RH  014%=      5-min Rain = 0
KTAT 151550Z 31013KT 30/M01 A2992 RMK A01 T03011008  RH  014%=      5-min Rain = 0
KTAT 151555Z 30013KT 31/M01 A2992 RMK A01 T03051005  RH  014%=      5-min Rain = 0
KTAT 151600Z 30013KT 30/M01 A2993 RMK A01 T03041007  RH  014%=      5-min Rain = 0
KTAT 151605Z 31013KT 31/M00 A2993 RMK A01 T03071004  RH  014%=      5-min Rain = 0
KTAT 151610Z 30013KT 31/00 A2993 RMK A01 T03090001  RH  014%=      5-min Rain = 0
KTAT 151615Z 30014KT 31/M01 A2993 RMK A01 T03131007  RH  013%=      5-min Rain = 0
KTAT 151620Z 31015G23KT 31/M01 A2993 RMK A01 T03141009  RH  013%=      5-min Rain = 0
KTAT 151625Z 32015G21KT 31/M01 A2993 RMK A01 T03131013  RH  012%=      5-min Rain = 0
KTAT 151630Z 31013KT 31/M01 A2993 RMK A01 T03141007  RH  013%=      5-min Rain = 0
KTAT 151635Z 31013KT 32/M00 A2993 RMK A01 T03161004  RH  013%=      5-min Rain = 0
KTAT 151640Z 30016KT 32/M01 A2993 RMK A01 T03171012  RH  012%=      5-min Rain = 0
KTAT 151645Z 31015KT 32/M01 A2993 RMK A01 T03161014  RH  012%=      5-min Rain = 0
KTAT 151650Z 31015G20KT 32/M01 A2993 RMK A01 T03171011  RH  012%=      5-min Rain = 0
KTAT 151655Z 31013G18KT 32/M01 A2993 RMK A01 T03191010  RH  012%=      5-min Rain = 0
KTAT 151700Z 32015KT 32/M01 A2993 RMK A01 T03181011  RH  012%=      5-min Rain = 0
KTAT 151705Z 31013G19KT 32/M01 A2993 RMK A01 T03201010  RH  012%=      5-min Rain = 0
KTAT 151710Z 31014KT 32/M02 A2993 RMK A01 T03221018  RH  011%=      5-min Rain = 0
KTAT 151715Z 31013G18KT 32/M02 A2993 RMK A01 T03241018  RH  011%=      5-min Rain = 0
KTAT 151720Z 30014KT 33/M01 A2993 RMK A01 T03281010  RH  012%=      5-min Rain = 0
KTAT 151725Z 32012G17KT 33/M02 A2993 RMK A01 T03271021  RH  011%=      5-min Rain = 0
KTAT 151730Z 31013KT 33/M02 A2993 RMK A01 T03291021  RH  011%=      5-min Rain = 0
KTAT 151735Z 31015G20KT 33/M03 A2993 RMK A01 T03291028  RH  010%=      5-min Rain = 0
KTAT 151740Z 31012KT 33/M02 A2993 RMK A01 T03311024  RH  010%=      5-min Rain = 0
KTAT 151745Z 33012KT 33/M03 A2993 RMK A01 T03301029  RH  010%=      5-min Rain = 0
KTAT 151750Z 32014G19KT 33/M03 A2993 RMK A01 T03311027  RH  010%=      5-min Rain = 0
KTAT 151755Z 31013KT 33/M03 A2993 RMK A01 T03301030  RH  010%=      5-min Rain = 0
KTAT 151800Z 32012G18KT 33/M03 A2993 RMK A01 T03321025  RH  010%=      5-min Rain = 0
KTAT 151805Z 32012KT 33/M03 A2993 RMK A01 T03331028  RH  010%=      5-min Rain = 0
KTAT 151810Z 30013G23KT 33/M03 A2993 RMK A01 T03341029  RH  010%=      5-min Rain = 0
KTAT 151815Z 30009G15KT 34/M02 A2993 RMK A01 T03351024  RH  010%=      5-min Rain = 0
KTAT 151820Z 26010G17KT 34/M03 A2993 RMK A01 T03371030  RH  009%=      5-min Rain = 0
KTAT 151825Z 30009G19KT 34/M02 A2993 RMK A01 T03391024  RH  010%=      5-min Rain = 0
KTAT 151830Z 30007G12KT 34/M03 A2993 RMK A01 T03381029  RH  009%=      5-min Rain = 0
KTAT 151835Z 29011G19KT 34/M04 A2993 RMK A01 T03351035  RH  009%=      5-min Rain = 0
KTAT 151840Z 28008KT 33/M04 A2993 RMK A01 T03331036  RH  009%=      5-min Rain = 0
KTAT 151845Z 27011G17KT 34/M03 A2993 RMK A01 T03391031  RH  009%=      5-min Rain = 0
KTAT 151850Z 25007KT 34/M04 A2993 RMK A01 T03381036  RH  009%=      5-min Rain = 0
KTAT 151855Z 28010KT 34/M03 A2992 RMK A01 T03431029  RH  009%=      5-min Rain = 0
KTAT 151900Z 25010G16KT 34/M04 A2992 RMK A01 T03441035  RH  009%=      5-min Rain = 0
KTAT 151905Z 26006KT 34/M04 A2992 RMK A01 T03391037  RH  009%=      5-min Rain = 0
KTAT 151910Z 25009G15KT 34/M03 A2992 RMK A01 T03401030  RH  009%=      5-min Rain = 0
KTAT 151915Z 25007G14KT 34/M03 A2992 RMK A01 T03431032  RH  009%=      5-min Rain = 0
KTAT 151920Z 27008G14KT 34/M03 A2992 RMK A01 T03421034  RH  009%=      5-min Rain = 0
KTAT 151925Z 27010G15KT 34/M04 A2992 RMK A01 T03431035  RH  009%=      5-min Rain = 0
KTAT 151930Z 27006KT 34/M03 A2991 RMK A01 T03431031  RH  009%=      5-min Rain = 0
KTAT 151935Z 27011G18KT 35/M03 A2991 RMK A01 T03451028  RH  009%=      5-min Rain = 0
KTAT 151940Z 27010KT 34/M03 A2991 RMK A01 T03421033  RH  009%=      5-min Rain = 0
KTAT 151945Z 27008KT 34/M03 A2991 RMK A01 T03391032  RH  009%=      5-min Rain = 0
KTAT 151950Z 25012G17KT 35/M02 A2991 RMK A01 T03471021  RH  010%=      5-min Rain = 0
KTAT 151955Z 23012G18KT 35/M03 A2991 RMK A01 T03481025  RH  009%=      5-min Rain = 0
KTAT 152000Z 23008G16KT 34/M03 A2991 RMK A01 T03441028  RH  009%=      5-min Rain = 0
KTAT 152005Z 27005G11KT 35/M02 A2991 RMK A01 T03451020  RH  010%=      5-min Rain = 0
KTAT 152010Z 25008G15KT 35/M02 A2991 RMK A01 T03471020  RH  010%=      5-min Rain = 0
KTAT 152015Z 24012G22KT 35/M02 A299 RMK A01 T03481024  RH  009%=      5-min Rain = 0
KTAT 152020Z 22015G21KT 35/M02 A299 RMK A01 T03531017  RH  010%=      5-min Rain = 0
KTAT 152025Z 23013KT 35/M02 A299 RMK A01 T03511019  RH  009%=      5-min Rain = 0
KTAT 152030Z 24010KT 35/M02 A299 RMK A01 T03451020  RH  010%=      5-min Rain = 0
KTAT 152035Z 23006G16KT 34/M02 A299 RMK A01 T03431016  RH  010%=      5-min Rain = 0
KTAT 152040Z 22012G17KT 35/M02 A299 RMK A01 T03501016  RH  010%=      5-min Rain = 0
KTAT 152045Z 19005G10KT 35/M02 A299 RMK A01 T03491016  RH  010%=      5-min Rain = 0
KTAT 152050Z 24009G17KT 35/M02 A299 RMK A01 T03471021  RH  010%=      5-min Rain = 0
KTAT 152055Z 24011G17KT 34/M02 A299 RMK A01 T03441022  RH  010%=      5-min Rain = 0
KTAT 152100Z 25012G17KT 34/M02 A2989 RMK A01 T03441023  RH  010%=      5-min Rain = 0
KTAT 152105Z 24011G17KT 34/M02 A2989 RMK A01 T03441022  RH  010%=      5-min Rain = 0
KTAT 152110Z 24016KT 35/M02 A2989 RMK A01 T03461020  RH  010%=      5-min Rain = 0
KTAT 152115Z 23011G16KT 35/M02 A2989 RMK A01 T03501018  RH  010%=      5-min Rain = 0
KTAT 152120Z 22008G14KT 35/M02 A2989 RMK A01 T03471017  RH  010%=      5-min Rain = 0
KTAT 152125Z 24008G15KT 35/M02 A2988 RMK A01 T03511016  RH  010%=      5-min Rain = 0
KTAT 152130Z 24010G18KT 35/M02 A2988 RMK A01 T03451023  RH  010%=      5-min Rain = 0
KTAT 152135Z 24006G11KT 34/M02 A2988 RMK A01 T03441022  RH  010%=      5-min Rain = 0
KTAT 152140Z 22007G14KT 35/M02 A2988 RMK A01 T03461018  RH  010%=      5-min Rain = 0
KTAT 152145Z 19009G14KT 35/M01 A2987 RMK A01 T03501010  RH  010%=      5-min Rain = 0
KTAT 152150Z 21010KT 35/M01 A2987 RMK A01 T03531008  RH  010%=      5-min Rain = 0
KTAT 152155Z 19012G17KT 36/M01 A2987 RMK A01 T03561007  RH  010%=      5-min Rain = 0
KTAT 152200Z 17013G18KT 36/M01 A2987 RMK A01 T03591007  RH  010%=      5-min Rain = 0
KTAT 152205Z 18010G15KT 35/M01 A2986 RMK A01 T03481012  RH  010%=      5-min Rain = 0
KTAT 152210Z 16011G17KT 35/M01 A2986 RMK A01 T03471012  RH  010%=      5-min Rain = 0
KTAT 152215Z 18013G18KT 35/M01 A2986 RMK A01 T03501009  RH  010%=      5-min Rain = 0
KTAT 152220Z 18012G17KT 34/M01 A2986 RMK A01 T03401014  RH  010%=      5-min Rain = 0
KTAT 152225Z 16011G16KT 35/M01 A2986 RMK A01 T03481007  RH  011%=      5-min Rain = 0
KTAT 152230Z 17011G16KT 36/M01 A2985 RMK A01 T03551007  RH  010%=      5-min Rain = 0
KTAT 152235Z 22010G17KT 35/M01 A2985 RMK A01 T03521006  RH  010%=      5-min Rain = 0
KTAT 152240Z 23008KT 35/M01 A2985 RMK A01 T03491006  RH  011%=      5-min Rain = 0
KTAT 152245Z 21013G20KT 35/M01 A2985 RMK A01 T03501010  RH  010%=      5-min Rain = 0
KTAT 152250Z 23016KT 35/M02 A2985 RMK A01 T03501015  RH  010%=      5-min Rain = 0
KTAT 152255Z 23020KT 35/M02 A2985 RMK A01 T03461022  RH  010%=      5-min Rain = 0
KTAT 152300Z 23016G22KT 35/M03 A2985 RMK A01 T03451026  RH  009%=      5-min Rain = 0
KTAT 152305Z 23016G25KT 34/M03 A2984 RMK A01 T03431029  RH  009%=      5-min Rain = 0
KTAT 152310Z 24017G22KT 34/M03 A2984 RMK A01 T03431032  RH  009%=      5-min Rain = 0
KTAT 152315Z 23017G22KT 34/M04 A2984 RMK A01 T03421038  RH  009%=      5-min Rain = 0
KTAT 152320Z 23015G20KT 34/M04 A2984 RMK A01 T03411039  RH  009%=      5-min Rain = 0
KTAT 152325Z 24018G23KT 34/M04 A2984 RMK A01 T03421040  RH  009%=      5-min Rain = 0
KTAT 152330Z 23018G23KT 34/M04 A2984 RMK A01 T03411040  RH  009%=      5-min Rain = 0
KTAT 152335Z 22018G24KT 34/M04 A2984 RMK A01 T03411040  RH  009%=      5-min Rain = 0
KTAT 152340Z 23017KT 34/M04 A2984 RMK A01 T03391043  RH  008%=      5-min Rain = 0
KTAT 152345Z 23015KT 34/M04 A2984 RMK A01 T03381037  RH  009%=      5-min Rain = 0
KTAT 152350Z 24016KT 34/M04 A2983 RMK A01 T03361042  RH  009%=      5-min Rain = 0
KTAT 152355Z 24018G25KT 34/M05 A2983 RMK A01 T03351047  RH  008%=      5-min Rain = 0
KTAT 160000Z 22019G24KT 34/M05 A2983 RMK A01 T03351052  RH  008%=      5-min Rain = 0
KTAT 160005Z 23017G22KT 34/M06 A2984 RMK A01 T03351055  RH  008%=      5-min Rain = 0
KTAT 160010Z 23017G22KT 33/M06 A2984 RMK A01 T03341061  RH  008%=      5-min Rain = 0
KTAT 160015Z 22017KT 33/M06 A2984 RMK A01 T03321062  RH  008%=      5-min Rain = 0
KTAT 160020Z 23016G21KT 33/M07 A2984 RMK A01 T03311067  RH  007%=      5-min Rain = 0
KTAT 160025Z 22017KT 33/M07 A2984 RMK A01 T03291072  RH  007%=      5-min Rain = 0
KTAT 160030Z 22014G19KT 33/M07 A2985 RMK A01 T03281068  RH  007%=      5-min Rain = 0
KTAT 160035Z 23014G19KT 33/M07 A2985 RMK A01 T03271074  RH  007%=      5-min Rain = 0
KTAT 160040Z 22013KT 33/M07 A2985 RMK A01 T03261070  RH  007%=      5-min Rain = 0
KTAT 160045Z 22014KT 32/M07 A2985 RMK A01 T03241069  RH  008%=      5-min Rain = 0
KTAT 160050Z 23014KT 32/M07 A2985 RMK A01 T03201074  RH  007%=      5-min Rain = 0
KTAT 160055Z 23013KT 31/M08 A2985 RMK A01 T03131077  RH  008%=      5-min Rain = 0
KTAT 160100Z 22012KT 31/M08 A2985 RMK A01 T03081075  RH  008%=      5-min Rain = 0
KTAT 160105Z 22010KT 31/M07 A2986 RMK A01 T03071069  RH  008%=      5-min Rain = 0
KTAT 160110Z 22010KT 30/M06 A2986 RMK A01 T03011063  RH  009%=      5-min Rain = 0
KTAT 160115Z 22009KT 30/M06 A2986 RMK A01 T02981062  RH  009%=      5-min Rain = 0
KTAT 160120Z 21008KT 30/M06 A2986 RMK A01 T02961055  RH  010%=      5-min Rain = 0
KTAT 160125Z 21007KT 29/M05 A2986 RMK A01 T02941046  RH  011%=      5-min Rain = 0
KTAT 160130Z 21007KT 29/M04 A2986 RMK A01 T02911040  RH  011%=      5-min Rain = 0
KTAT 160135Z 21007KT 29/M04 A2986 RMK A01 T02851035  RH  012%=      5-min Rain = 0
KTAT 160140Z 21007KT 28/M03 A2987 RMK A01 T02801030  RH  013%=      5-min Rain = 0
KTAT 160145Z 21007KT 27/M03 A2987 RMK A01 T02721030  RH  014%=      5-min Rain = 0
KTAT 160150Z 20007KT 26/M03 A2987 RMK A01 T02631027  RH  015%=      5-min Rain = 0
KTAT 160155Z 20008KT 25/M03 A2987 RMK A01 T02521027  RH  016%=      5-min Rain = 0
KTAT 160200Z 20008KT 24/M02 A2987 RMK A01 T02441022  RH  017%=      5-min Rain = 0
KTAT 160205Z 20008KT 24/M01 A2987 RMK A01 T02361012  RH  019%=      5-min Rain = 0
KTAT 160210Z 21009KT 23/M01 A2987 RMK A01 T02311014  RH  020%=      5-min Rain = 0
KTAT 160215Z 21009KT 23/M02 A2987 RMK A01 T02271016  RH  020%=      5-min Rain = 0
KTAT 160220Z 21009KT 22/M01 A2987 RMK A01 T02221013  RH  021%=      5-min Rain = 0
KTAT 160225Z 21010KT 22/M01 A2987 RMK A01 T02161010  RH  022%=      5-min Rain = 0
KTAT 160230Z 21010KT 21/M01 A2986 RMK A01 T02131012  RH  022%=      5-min Rain = 0
KTAT 160235Z 21010KT 22/M02 A2986 RMK A01 T02161020  RH  021%=      5-min Rain = 0
KTAT 160240Z 21009KT 22/M02 A2987 RMK A01 T02231024  RH  019%=      5-min Rain = 0
KTAT 160245Z 22009KT 22/M02 A2987 RMK A01 T02231023  RH  019%=      5-min Rain = 0
KTAT 160250Z 22009KT 22/M03 A2987 RMK A01 T02221025  RH  019%=      5-min Rain = 0
KTAT 160255Z 22009KT 22/M03 A2987 RMK A01 T02221027  RH  019%=      5-min Rain = 0
KTAT 160300Z 22010KT 22/M03 A2987 RMK A01 T02221030  RH  018%=      5-min Rain = 0
KTAT 160305Z 22009KT 22/M03 A2987 RMK A01 T02221033  RH  018%=      5-min Rain = 0
KTAT 160310Z 22010KT 22/M03 A2987 RMK A01 T02211034  RH  018%=      5-min Rain = 0
KTAT 160315Z 22010KT 22/M04 A2986 RMK A01 T02201038  RH  018%=      5-min Rain = 0
KTAT 160320Z 21010KT 22/M05 A2986 RMK A01 T02231045  RH  016%=      5-min Rain = 0
KTAT 160325Z 21009KT 23/M05 A2987 RMK A01 T02271047  RH  016%=      5-min Rain = 0
KTAT 160330Z 20006KT 23/M05 A2987 RMK A01 T02271048  RH  016%=      5-min Rain = 0
KTAT 160335Z 07007KT 22/M03 A2987 RMK A01 T02181029  RH  019%=      5-min Rain = 0
KTAT 160340Z 08007G12KT 23/M03 A2988 RMK A01 T02311030  RH  018%=      5-min Rain = 0
KTAT 160345Z 08011G17KT 24/06 A2988 RMK A01 T02370060  RH  033%=      5-min Rain = 0
KTAT 160350Z 08011KT 22/06 A2988 RMK A01 T02230060  RH  036%=      5-min Rain = 0
KTAT 160355Z 09007KT 22/06 A2989 RMK A01 T02150064  RH  038%=      5-min Rain = 0
KTAT 160400Z 10006KT 21/07 A2989 RMK A01 T02090065  RH  040%=      5-min Rain = 0
KTAT 160405Z 09006KT 20/07 A2989 RMK A01 T02040065  RH  041%=      5-min Rain = 0
KTAT 160410Z 06004KT 21/06 A2989 RMK A01 T02100057  RH  038%=      5-min Rain = 0
KTAT 160415Z 09004KT 22/05 A299 RMK A01 T02230046  RH  032%=      5-min Rain = 0
KTAT 160420Z 06007G14KT 22/05 A299 RMK A01 T02220045  RH  032%=      5-min Rain = 0
KTAT 160425Z 06011KT 23/06 A2991 RMK A01 T02260057  RH  034%=      5-min Rain = 0
KTAT 160430Z 08010G15KT 23/07 A2991 RMK A01 T02260067  RH  037%=      5-min Rain = 0
KTAT 160435Z 08011KT 22/08 A2992 RMK A01 T02200077  RH  041%=      5-min Rain = 0
KTAT 160440Z 08010KT 21/08 A2992 RMK A01 T02120079  RH  043%=      5-min Rain = 0
KTAT 160445Z 08010KT 21/08 A2992 RMK A01 T02070078  RH  044%=      5-min Rain = 0
KTAT 160450Z 08010KT 21/08 A2992 RMK A01 T02050078  RH  045%=      5-min Rain = 0
KTAT 160455Z 08008KT 20/08 A2993 RMK A01 T02030079  RH  046%=      5-min Rain = 0

Page generated in 0.0093 seconds.